sensor_id;sensor_type;location;lat;lon;timestamp;pressure;altitude;pressure_sealevel;temperature;humidity
46682;BME280;34101;53.430;-2.224;2023-04-26T00:02:03;101461.32;;;9.52;49.06
46682;BME280;34101;53.430;-2.224;2023-04-26T00:04:30;101460.19;;;9.54;49.11
46682;BME280;34101;53.430;-2.224;2023-04-26T00:06:57;101462.77;;;9.51;49.16
46682;BME280;34101;53.430;-2.224;2023-04-26T00:09:25;101457.44;;;9.50;49.11
46682;BME280;34101;53.430;-2.224;2023-04-26T00:11:53;101454.12;;;9.45;49.60
46682;BME280;34101;53.430;-2.224;2023-04-26T00:14:20;101451.70;;;9.39;49.85
46682;BME280;34101;53.430;-2.224;2023-04-26T00:16:47;101450.74;;;9.40;49.45
46682;BME280;34101;53.430;-2.224;2023-04-26T00:19:14;101449.24;;;9.38;49.67
46682;BME280;34101;53.430;-2.224;2023-04-26T00:21:42;101448.33;;;9.39;49.65
46682;BME280;34101;53.430;-2.224;2023-04-26T00:24:09;101447.74;;;9.39;49.35
46682;BME280;34101;53.430;-2.224;2023-04-26T00:26:37;101445.42;;;9.36;49.31
46682;BME280;34101;53.430;-2.224;2023-04-26T00:29:04;101442.45;;;9.32;49.59
46682;BME280;34101;53.430;-2.224;2023-04-26T00:31:32;101437.72;;;9.28;49.73
46682;BME280;34101;53.430;-2.224;2023-04-26T00:33:59;101434.13;;;9.25;50.15
46682;BME280;34101;53.430;-2.224;2023-04-26T00:36:27;101437.05;;;9.18;50.80
46682;BME280;34101;53.430;-2.224;2023-04-26T00:38:54;101434.74;;;9.12;51.14
46682;BME280;34101;53.430;-2.224;2023-04-26T00:41:22;101434.25;;;9.10;51.37
46682;BME280;34101;53.430;-2.224;2023-04-26T00:43:49;101434.32;;;9.12;51.58
46682;BME280;34101;53.430;-2.224;2023-04-26T00:46:16;101437.79;;;9.13;51.66
46682;BME280;34101;53.430;-2.224;2023-04-26T00:48:44;101435.41;;;9.09;52.06
46682;BME280;34101;53.430;-2.224;2023-04-26T00:51:12;101428.84;;;9.02;52.46
46682;BME280;34101;53.430;-2.224;2023-04-26T00:53:40;101426.72;;;9.05;52.64
46682;BME280;34101;53.430;-2.224;2023-04-26T00:56:08;101417.74;;;9.06;52.54
46682;BME280;34101;53.430;-2.224;2023-04-26T00:58:36;101409.05;;;9.08;52.63
46682;BME280;34101;53.430;-2.224;2023-04-26T01:01:04;101405.31;;;9.01;52.85
46682;BME280;34101;53.430;-2.224;2023-04-26T01:03:32;101404.81;;;8.97;53.10
46682;BME280;34101;53.430;-2.224;2023-04-26T01:05:59;101401.45;;;8.94;53.23
46682;BME280;34101;53.430;-2.224;2023-04-26T01:08:27;101398.46;;;8.92;53.50
46682;BME280;34101;53.430;-2.224;2023-04-26T01:10:55;101400.51;;;8.85;53.59
46682;BME280;34101;53.430;-2.224;2023-04-26T01:13:22;101397.51;;;8.84;53.89
46682;BME280;34101;53.430;-2.224;2023-04-26T01:15:51;101397.30;;;8.76;53.87
46682;BME280;34101;53.430;-2.224;2023-04-26T01:18:20;101394.90;;;8.65;54.45
46682;BME280;34101;53.430;-2.224;2023-04-26T01:20:51;101392.31;;;8.65;54.79
46682;BME280;34101;53.430;-2.224;2023-04-26T01:23:18;101389.98;;;8.68;54.62
46682;BME280;34101;53.430;-2.224;2023-04-26T01:25:47;101388.72;;;8.68;54.72
46682;BME280;34101;53.430;-2.224;2023-04-26T01:28:14;101386.21;;;8.72;54.58
46682;BME280;34101;53.430;-2.224;2023-04-26T01:30:42;101385.59;;;8.75;54.62
46682;BME280;34101;53.430;-2.224;2023-04-26T01:33:09;101383.65;;;8.70;54.57
46682;BME280;34101;53.430;-2.224;2023-04-26T01:35:37;101381.76;;;8.69;54.81
46682;BME280;34101;53.430;-2.224;2023-04-26T01:38:04;101376.71;;;8.69;54.45
46682;BME280;34101;53.430;-2.224;2023-04-26T01:40:31;101377.93;;;8.70;54.78
46682;BME280;34101;53.430;-2.224;2023-04-26T01:42:59;101373.23;;;8.70;54.76
46682;BME280;34101;53.430;-2.224;2023-04-26T01:45:27;101370.62;;;8.67;54.84
46682;BME280;34101;53.430;-2.224;2023-04-26T01:47:54;101366.96;;;8.65;54.88
46682;BME280;34101;53.430;-2.224;2023-04-26T01:50:22;101366.18;;;8.66;54.80
46682;BME280;34101;53.430;-2.224;2023-04-26T01:52:49;101365.34;;;8.54;55.01
46682;BME280;34101;53.430;-2.224;2023-04-26T01:55:17;101370.07;;;8.56;55.04
46682;BME280;34101;53.430;-2.224;2023-04-26T01:57:44;101373.64;;;8.56;55.29
46682;BME280;34101;53.430;-2.224;2023-04-26T02:00:12;101372.18;;;8.56;55.25
46682;BME280;34101;53.430;-2.224;2023-04-26T02:02:39;101371.46;;;8.59;55.18
46682;BME280;34101;53.430;-2.224;2023-04-26T02:05:09;101367.40;;;8.62;55.19
46682;BME280;34101;53.430;-2.224;2023-04-26T02:07:37;101364.34;;;8.61;55.21
46682;BME280;34101;53.430;-2.224;2023-04-26T02:10:05;101359.82;;;8.60;55.13
46682;BME280;34101;53.430;-2.224;2023-04-26T02:12:32;101354.73;;;8.62;54.94
46682;BME280;34101;53.430;-2.224;2023-04-26T02:15:06;101355.05;;;8.63;54.96
46682;BME280;34101;53.430;-2.224;2023-04-26T02:17:34;101355.79;;;8.62;55.18
46682;BME280;34101;53.430;-2.224;2023-04-26T02:20:02;101356.43;;;8.65;55.38
46682;BME280;34101;53.430;-2.224;2023-04-26T02:22:29;101355.32;;;8.69;55.37
46682;BME280;34101;53.430;-2.224;2023-04-26T02:25:02;101353.12;;;8.73;55.28
46682;BME280;34101;53.430;-2.224;2023-04-26T02:27:29;101355.12;;;8.75;55.22
46682;BME280;34101;53.430;-2.224;2023-04-26T02:29:57;101359.38;;;8.79;55.35
46682;BME280;34101;53.430;-2.224;2023-04-26T02:32:24;101359.62;;;8.82;55.21
46682;BME280;34101;53.430;-2.224;2023-04-26T02:34:52;101356.99;;;8.83;54.99
46682;BME280;34101;53.430;-2.224;2023-04-26T02:37:19;101354.23;;;8.82;55.05
46682;BME280;34101;53.430;-2.224;2023-04-26T02:39:49;101351.29;;;8.85;54.91
46682;BME280;34101;53.430;-2.224;2023-04-26T02:42:16;101350.03;;;8.83;54.64
46682;BME280;34101;53.430;-2.224;2023-04-26T02:44:44;101345.17;;;8.84;54.90
46682;BME280;34101;53.430;-2.224;2023-04-26T02:47:11;101342.36;;;8.85;54.93
46682;BME280;34101;53.430;-2.224;2023-04-26T02:49:39;101342.99;;;8.88;54.82
46682;BME280;34101;53.430;-2.224;2023-04-26T02:52:06;101344.38;;;8.84;55.01
46682;BME280;34101;53.430;-2.224;2023-04-26T02:54:34;101345.61;;;8.83;54.97
46682;BME280;34101;53.430;-2.224;2023-04-26T02:57:01;101343.96;;;8.81;54.88
46682;BME280;34101;53.430;-2.224;2023-04-26T02:59:29;101340.98;;;8.80;54.77
46682;BME280;34101;53.430;-2.224;2023-04-26T03:01:56;101335.76;;;8.76;54.72
46682;BME280;34101;53.430;-2.224;2023-04-26T03:04:24;101333.33;;;8.74;54.72
46682;BME280;34101;53.430;-2.224;2023-04-26T03:06:51;101334.03;;;8.72;54.56
46682;BME280;34101;53.430;-2.224;2023-04-26T03:09:19;101335.36;;;8.65;54.56
46682;BME280;34101;53.430;-2.224;2023-04-26T03:11:46;101336.09;;;8.63;54.75
46682;BME280;34101;53.430;-2.224;2023-04-26T03:14:13;101340.14;;;8.60;54.85
46682;BME280;34101;53.430;-2.224;2023-04-26T03:16:41;101345.35;;;8.58;54.89
46682;BME280;34101;53.430;-2.224;2023-04-26T03:19:08;101345.69;;;8.58;54.72
46682;BME280;34101;53.430;-2.224;2023-04-26T03:21:40;101344.64;;;8.57;55.01
46682;BME280;34101;53.430;-2.224;2023-04-26T03:24:08;101344.25;;;8.57;55.09
46682;BME280;34101;53.430;-2.224;2023-04-26T03:26:35;101347.55;;;8.62;55.05
46682;BME280;34101;53.430;-2.224;2023-04-26T03:29:04;101347.31;;;8.59;55.31
46682;BME280;34101;53.430;-2.224;2023-04-26T03:31:31;101346.50;;;8.60;55.33
46682;BME280;34101;53.430;-2.224;2023-04-26T03:33:59;101348.47;;;8.63;55.54
46682;BME280;34101;53.430;-2.224;2023-04-26T03:36:27;101352.40;;;8.68;55.69
46682;BME280;34101;53.430;-2.224;2023-04-26T03:38:54;101351.78;;;8.72;55.40
46682;BME280;34101;53.430;-2.224;2023-04-26T03:41:22;101343.52;;;8.71;54.91
46682;BME280;34101;53.430;-2.224;2023-04-26T03:43:49;101329.66;;;8.73;54.32
46682;BME280;34101;53.430;-2.224;2023-04-26T03:46:16;101327.35;;;8.68;54.33
46682;BME280;34101;53.430;-2.224;2023-04-26T03:48:44;101323.56;;;8.68;54.39
46682;BME280;34101;53.430;-2.224;2023-04-26T03:51:11;101325.70;;;8.69;54.31
46682;BME280;34101;53.430;-2.224;2023-04-26T03:53:39;101322.07;;;8.71;54.18
46682;BME280;34101;53.430;-2.224;2023-04-26T03:56:07;101318.70;;;8.72;54.09
46682;BME280;34101;53.430;-2.224;2023-04-26T03:58:35;101314.08;;;8.70;54.07
46682;BME280;34101;53.430;-2.224;2023-04-26T04:01:02;101312.38;;;8.67;54.44
46682;BME280;34101;53.430;-2.224;2023-04-26T04:03:30;101312.68;;;8.68;54.48
46682;BME280;34101;53.430;-2.224;2023-04-26T04:05:57;101313.60;;;8.68;54.62
46682;BME280;34101;53.430;-2.224;2023-04-26T04:08:26;101311.92;;;8.73;54.38
46682;BME280;34101;53.430;-2.224;2023-04-26T04:10:54;101313.96;;;8.71;54.50
46682;BME280;34101;53.430;-2.224;2023-04-26T04:13:21;101315.07;;;8.73;54.30
46682;BME280;34101;53.430;-2.224;2023-04-26T04:15:49;101316.95;;;8.69;54.32
46682;BME280;34101;53.430;-2.224;2023-04-26T04:18:16;101314.94;;;8.70;54.22
46682;BME280;34101;53.430;-2.224;2023-04-26T04:20:44;101314.80;;;8.70;54.28
46682;BME280;34101;53.430;-2.224;2023-04-26T04:23:11;101311.31;;;8.69;54.25
46682;BME280;34101;53.430;-2.224;2023-04-26T04:25:39;101309.20;;;8.65;54.30
46682;BME280;34101;53.430;-2.224;2023-04-26T04:28:06;101312.65;;;8.64;54.15
46682;BME280;34101;53.430;-2.224;2023-04-26T04:30:33;101314.57;;;8.63;54.19
46682;BME280;34101;53.430;-2.224;2023-04-26T04:33:00;101314.73;;;8.61;54.31
46682;BME280;34101;53.430;-2.224;2023-04-26T04:35:29;101320.13;;;8.59;54.29
46682;BME280;34101;53.430;-2.224;2023-04-26T04:37:57;101318.45;;;8.56;54.56
46682;BME280;34101;53.430;-2.224;2023-04-26T04:40:25;101318.39;;;8.54;54.76
46682;BME280;34101;53.430;-2.224;2023-04-26T04:42:52;101319.99;;;8.54;54.65
46682;BME280;34101;53.430;-2.224;2023-04-26T04:45:19;101322.51;;;8.53;54.85
46682;BME280;34101;53.430;-2.224;2023-04-26T04:47:46;101325.09;;;8.47;54.97
46682;BME280;34101;53.430;-2.224;2023-04-26T04:50:14;101328.02;;;8.41;55.29
46682;BME280;34101;53.430;-2.224;2023-04-26T04:52:41;101330.97;;;8.25;55.65
46682;BME280;34101;53.430;-2.224;2023-04-26T04:55:08;101327.69;;;8.20;55.87
46682;BME280;34101;53.430;-2.224;2023-04-26T04:57:36;101330.35;;;8.17;56.15
46682;BME280;34101;53.430;-2.224;2023-04-26T05:00:04;101332.38;;;8.15;56.23
46682;BME280;34101;53.430;-2.224;2023-04-26T05:02:31;101336.41;;;8.17;56.13
46682;BME280;34101;53.430;-2.224;2023-04-26T05:04:58;101337.20;;;8.20;56.24
46682;BME280;34101;53.430;-2.224;2023-04-26T05:07:26;101339.09;;;8.23;56.24
46682;BME280;34101;53.430;-2.224;2023-04-26T05:09:53;101336.32;;;8.29;55.97
46682;BME280;34101;53.430;-2.224;2023-04-26T05:12:20;101339.86;;;8.34;55.83
46682;BME280;34101;53.430;-2.224;2023-04-26T05:14:48;101340.03;;;8.41;55.75
46682;BME280;34101;53.430;-2.224;2023-04-26T05:17:16;101344.12;;;8.47;55.63
46682;BME280;34101;53.430;-2.224;2023-04-26T05:19:43;101343.66;;;8.51;55.45
46682;BME280;34101;53.430;-2.224;2023-04-26T05:22:10;101343.91;;;8.55;55.60
46682;BME280;34101;53.430;-2.224;2023-04-26T05:24:37;101344.02;;;8.63;55.45
46682;BME280;34101;53.430;-2.224;2023-04-26T05:27:04;101341.94;;;8.69;55.23
46682;BME280;34101;53.430;-2.224;2023-04-26T05:29:32;101343.09;;;8.73;54.79
46682;BME280;34101;53.430;-2.224;2023-04-26T05:31:59;101343.84;;;8.75;54.90
46682;BME280;34101;53.430;-2.224;2023-04-26T05:34:32;101337.45;;;8.80;54.65
46682;BME280;34101;53.430;-2.224;2023-04-26T05:36:58;101337.73;;;8.81;54.38
46682;BME280;34101;53.430;-2.224;2023-04-26T05:39:26;101337.45;;;8.84;54.50
46682;BME280;34101;53.430;-2.224;2023-04-26T05:41:54;101334.44;;;8.89;54.68
46682;BME280;34101;53.430;-2.224;2023-04-26T05:44:21;101333.03;;;8.93;54.63
46682;BME280;34101;53.430;-2.224;2023-04-26T05:46:49;101336.15;;;9.00;54.29
46682;BME280;34101;53.430;-2.224;2023-04-26T05:49:16;101334.14;;;9.04;54.25
46682;BME280;34101;53.430;-2.224;2023-04-26T05:51:44;101334.90;;;9.06;54.63
46682;BME280;34101;53.430;-2.224;2023-04-26T05:54:11;101333.82;;;9.08;54.03
46682;BME280;34101;53.430;-2.224;2023-04-26T05:56:38;101330.43;;;9.08;53.99
46682;BME280;34101;53.430;-2.224;2023-04-26T05:59:07;101331.49;;;9.08;54.20
46682;BME280;34101;53.430;-2.224;2023-04-26T06:01:34;101333.55;;;9.08;54.28
46682;BME280;34101;53.430;-2.224;2023-04-26T06:04:02;101338.13;;;9.14;54.37
46682;BME280;34101;53.430;-2.224;2023-04-26T06:06:28;101338.90;;;9.23;54.07
46682;BME280;34101;53.430;-2.224;2023-04-26T06:08:56;101336.81;;;9.31;53.57
46682;BME280;34101;53.430;-2.224;2023-04-26T06:11:23;101339.11;;;9.35;53.53
46682;BME280;34101;53.430;-2.224;2023-04-26T06:13:50;101341.48;;;9.40;53.50
46682;BME280;34101;53.430;-2.224;2023-04-26T06:16:18;101345.96;;;9.51;53.04
46682;BME280;34101;53.430;-2.224;2023-04-26T06:18:45;101346.15;;;9.59;52.69
46682;BME280;34101;53.430;-2.224;2023-04-26T06:21:12;101347.94;;;9.61;52.72
46682;BME280;34101;53.430;-2.224;2023-04-26T06:23:40;101349.86;;;9.66;52.58
46682;BME280;34101;53.430;-2.224;2023-04-26T06:26:07;101351.01;;;9.69;52.27
46682;BME280;34101;53.430;-2.224;2023-04-26T06:28:34;101350.71;;;9.74;52.20
46682;BME280;34101;53.430;-2.224;2023-04-26T06:31:02;101356.27;;;9.77;52.47
46682;BME280;34101;53.430;-2.224;2023-04-26T06:33:29;101358.87;;;9.84;52.21
46682;BME280;34101;53.430;-2.224;2023-04-26T06:35:56;101360.05;;;9.92;52.16
46682;BME280;34101;53.430;-2.224;2023-04-26T06:38:23;101360.95;;;10.03;51.57
46682;BME280;34101;53.430;-2.224;2023-04-26T06:40:51;101363.35;;;10.12;51.27
46682;BME280;34101;53.430;-2.224;2023-04-26T06:43:18;101362.28;;;10.25;50.85
46682;BME280;34101;53.430;-2.224;2023-04-26T06:45:45;101360.78;;;10.32;50.73
46682;BME280;34101;53.430;-2.224;2023-04-26T06:48:13;101362.85;;;10.44;50.27
46682;BME280;34101;53.430;-2.224;2023-04-26T06:50:40;101364.96;;;10.54;49.84
46682;BME280;34101;53.430;-2.224;2023-04-26T06:53:08;101363.08;;;10.57;49.50
46682;BME280;34101;53.430;-2.224;2023-04-26T06:55:35;101362.44;;;10.61;49.36
46682;BME280;34101;53.430;-2.224;2023-04-26T06:58:03;101362.09;;;10.68;49.08
46682;BME280;34101;53.430;-2.224;2023-04-26T07:00:30;101361.81;;;10.78;48.78
46682;BME280;34101;53.430;-2.224;2023-04-26T07:02:57;101362.42;;;10.86;48.94
46682;BME280;34101;53.430;-2.224;2023-04-26T07:05:30;101363.50;;;10.96;48.40
46682;BME280;34101;53.430;-2.224;2023-04-26T07:07:57;101358.94;;;11.07;48.02
46682;BME280;34101;53.430;-2.224;2023-04-26T07:10:25;101355.35;;;11.16;48.10
46682;BME280;34101;53.430;-2.224;2023-04-26T07:12:53;101359.10;;;11.27;47.82
46682;BME280;34101;53.430;-2.224;2023-04-26T07:15:20;101359.00;;;11.37;47.26
46682;BME280;34101;53.430;-2.224;2023-04-26T07:17:48;101361.85;;;11.45;46.92
46682;BME280;34101;53.430;-2.224;2023-04-26T07:20:15;101358.53;;;11.50;46.16
46682;BME280;34101;53.430;-2.224;2023-04-26T07:22:42;101356.34;;;11.51;46.21
46682;BME280;34101;53.430;-2.224;2023-04-26T07:25:10;101354.54;;;11.59;45.67
46682;BME280;34101;53.430;-2.224;2023-04-26T07:27:37;101354.70;;;11.62;45.31
46682;BME280;34101;53.430;-2.224;2023-04-26T07:30:06;101353.48;;;11.70;44.24
46682;BME280;34101;53.430;-2.224;2023-04-26T07:32:33;101356.97;;;11.78;44.21
46682;BME280;34101;53.430;-2.224;2023-04-26T07:35:01;101352.60;;;11.77;44.73
46682;BME280;34101;53.430;-2.224;2023-04-26T07:37:28;101348.71;;;12.01;43.83
46682;BME280;34101;53.430;-2.224;2023-04-26T07:39:56;101355.75;;;12.22;42.78
46682;BME280;34101;53.430;-2.224;2023-04-26T07:42:23;101353.55;;;12.34;42.97
46682;BME280;34101;53.430;-2.224;2023-04-26T07:44:50;101347.83;;;12.50;41.38
46682;BME280;34101;53.430;-2.224;2023-04-26T07:47:18;101341.81;;;12.70;41.32
46682;BME280;34101;53.430;-2.224;2023-04-26T07:49:45;101338.71;;;12.84;41.00
46682;BME280;34101;53.430;-2.224;2023-04-26T07:52:12;101343.82;;;12.96;40.27
46682;BME280;34101;53.430;-2.224;2023-04-26T07:54:40;101343.04;;;13.07;39.92
46682;BME280;34101;53.430;-2.224;2023-04-26T07:57:07;101343.19;;;13.15;40.39
46682;BME280;34101;53.430;-2.224;2023-04-26T07:59:35;101346.47;;;13.21;40.17
46682;BME280;34101;53.430;-2.224;2023-04-26T08:02:02;101345.24;;;13.20;39.67
46682;BME280;34101;53.430;-2.224;2023-04-26T08:04:31;101345.33;;;13.01;40.66
46682;BME280;34101;53.430;-2.224;2023-04-26T08:06:59;101341.70;;;13.36;40.57
46682;BME280;34101;53.430;-2.224;2023-04-26T08:09:27;101336.16;;;13.89;39.62
46682;BME280;34101;53.430;-2.224;2023-04-26T08:11:54;101337.84;;;14.59;38.31
46682;BME280;34101;53.430;-2.224;2023-04-26T08:14:21;101334.67;;;15.29;36.21
46682;BME280;34101;53.430;-2.224;2023-04-26T08:16:49;101336.85;;;15.66;35.84
46682;BME280;34101;53.430;-2.224;2023-04-26T08:19:17;101337.14;;;15.87;35.14
46682;BME280;34101;53.430;-2.224;2023-04-26T08:21:44;101337.29;;;15.60;35.69
46682;BME280;34101;53.430;-2.224;2023-04-26T08:24:11;101340.18;;;15.29;35.87
46682;BME280;34101;53.430;-2.224;2023-04-26T08:26:39;101341.53;;;15.54;35.28
46682;BME280;34101;53.430;-2.224;2023-04-26T08:29:07;101340.53;;;15.92;33.65
46682;BME280;34101;53.430;-2.224;2023-04-26T08:31:34;101341.29;;;15.15;34.81
46682;BME280;34101;53.430;-2.224;2023-04-26T08:34:01;101342.05;;;15.26;34.61
46682;BME280;34101;53.430;-2.224;2023-04-26T08:36:28;101341.68;;;15.98;34.30
46682;BME280;34101;53.430;-2.224;2023-04-26T08:38:56;101339.73;;;15.77;33.66
46682;BME280;34101;53.430;-2.224;2023-04-26T08:41:25;101336.91;;;16.10;33.12
46682;BME280;34101;53.430;-2.224;2023-04-26T08:43:54;101336.75;;;16.28;32.71
46682;BME280;34101;53.430;-2.224;2023-04-26T08:46:24;101334.34;;;16.61;32.27
46682;BME280;34101;53.430;-2.224;2023-04-26T08:48:59;101338.22;;;16.48;33.31
46682;BME280;34101;53.430;-2.224;2023-04-26T08:51:37;101336.58;;;15.82;32.85
46682;BME280;34101;53.430;-2.224;2023-04-26T08:54:05;101332.50;;;16.47;32.00
46682;BME280;34101;53.430;-2.224;2023-04-26T08:56:33;101333.77;;;16.62;30.92
46682;BME280;34101;53.430;-2.224;2023-04-26T08:59:01;101332.17;;;17.06;30.72
46682;BME280;34101;53.430;-2.224;2023-04-26T09:01:29;101333.15;;;17.30;30.54
46682;BME280;34101;53.430;-2.224;2023-04-26T09:03:59;101333.10;;;17.34;30.78
46682;BME280;34101;53.430;-2.224;2023-04-26T09:06:27;101334.04;;;16.28;31.92
46682;BME280;34101;53.430;-2.224;2023-04-26T09:08:55;101334.82;;;16.03;33.66
46682;BME280;34101;53.430;-2.224;2023-04-26T09:11:24;101331.17;;;17.04;31.96
46682;BME280;34101;53.430;-2.224;2023-04-26T09:13:51;101335.96;;;16.93;31.84
46682;BME280;34101;53.430;-2.224;2023-04-26T09:16:19;101330.59;;;17.12;31.69
46682;BME280;34101;53.430;-2.224;2023-04-26T09:18:48;101332.98;;;18.45;29.59
46682;BME280;34101;53.430;-2.224;2023-04-26T09:21:21;101337.13;;;17.71;29.63
46682;BME280;34101;53.430;-2.224;2023-04-26T09:23:57;101339.73;;;18.99;26.38
46682;BME280;34101;53.430;-2.224;2023-04-26T09:26:24;101340.94;;;19.52;25.27
46682;BME280;34101;53.430;-2.224;2023-04-26T09:29:11;101338.51;;;19.79;25.70
46682;BME280;34101;53.430;-2.224;2023-04-26T09:31:39;101338.17;;;20.07;24.59
46682;BME280;34101;53.430;-2.224;2023-04-26T09:34:08;101336.54;;;20.82;23.59
46682;BME280;34101;53.430;-2.224;2023-04-26T09:36:53;101334.29;;;20.60;23.76
46682;BME280;34101;53.430;-2.224;2023-04-26T09:39:39;101335.04;;;18.61;24.56
46682;BME280;34101;53.430;-2.224;2023-04-26T09:42:07;101335.70;;;19.26;24.40
46682;BME280;34101;53.430;-2.224;2023-04-26T09:44:35;101341.16;;;19.11;24.09
46682;BME280;34101;53.430;-2.224;2023-04-26T09:47:05;101335.07;;;18.51;24.68
46682;BME280;34101;53.430;-2.224;2023-04-26T09:49:42;101329.30;;;19.32;23.75
46682;BME280;34101;53.430;-2.224;2023-04-26T09:52:10;101326.74;;;20.34;22.65
46682;BME280;34101;53.430;-2.224;2023-04-26T09:54:39;101330.20;;;19.78;22.32
46682;BME280;34101;53.430;-2.224;2023-04-26T09:57:06;101330.66;;;19.42;24.31
46682;BME280;34101;53.430;-2.224;2023-04-26T09:59:51;101332.88;;;19.45;25.31
46682;BME280;34101;53.430;-2.224;2023-04-26T10:02:20;101333.31;;;17.72;27.01
46682;BME280;34101;53.430;-2.224;2023-04-26T10:04:49;101334.22;;;16.72;28.77
46682;BME280;34101;53.430;-2.224;2023-04-26T10:07:18;101334.17;;;17.47;27.93
46682;BME280;34101;53.430;-2.224;2023-04-26T10:09:45;101328.06;;;18.12;27.65
46682;BME280;34101;53.430;-2.224;2023-04-26T10:12:14;101326.52;;;18.24;28.24
46682;BME280;34101;53.430;-2.224;2023-04-26T10:14:42;101324.36;;;17.58;27.93
46682;BME280;34101;53.430;-2.224;2023-04-26T10:17:11;101321.92;;;16.68;29.36
46682;BME280;34101;53.430;-2.224;2023-04-26T10:19:40;101319.99;;;16.60;29.48
46682;BME280;34101;53.430;-2.224;2023-04-26T10:22:13;101313.63;;;17.38;28.11
46682;BME280;34101;53.430;-2.224;2023-04-26T10:24:43;101309.05;;;18.02;26.93
46682;BME280;34101;53.430;-2.224;2023-04-26T10:27:11;101311.09;;;17.72;26.92
46682;BME280;34101;53.430;-2.224;2023-04-26T10:30:13;101308.72;;;16.69;29.61
46682;BME280;34101;53.430;-2.224;2023-04-26T10:33:13;101309.92;;;15.95;30.58
46682;BME280;34101;53.430;-2.224;2023-04-26T10:35:59;101298.31;;;18.00;27.33
46682;BME280;34101;53.430;-2.224;2023-04-26T10:38:27;101299.89;;;18.26;26.75
46682;BME280;34101;53.430;-2.224;2023-04-26T10:40:54;101293.88;;;17.35;27.23
46682;BME280;34101;53.430;-2.224;2023-04-26T10:43:29;101300.01;;;16.00;30.18
46682;BME280;34101;53.430;-2.224;2023-04-26T10:45:57;101295.58;;;16.48;29.67
46682;BME280;34101;53.430;-2.224;2023-04-26T10:48:58;101301.45;;;15.52;31.27
46682;BME280;34101;53.430;-2.224;2023-04-26T10:51:27;101304.23;;;15.69;31.14
46682;BME280;34101;53.430;-2.224;2023-04-26T10:53:58;101301.17;;;15.03;31.74
46682;BME280;34101;53.430;-2.224;2023-04-26T10:56:57;101295.82;;;15.40;30.37
46682;BME280;34101;53.430;-2.224;2023-04-26T10:59:24;101293.48;;;15.69;30.59
46682;BME280;34101;53.430;-2.224;2023-04-26T11:01:52;101295.63;;;15.14;31.63
46682;BME280;34101;53.430;-2.224;2023-04-26T11:04:19;101294.80;;;14.66;31.97
46682;BME280;34101;53.430;-2.224;2023-04-26T11:06:48;101295.09;;;14.73;31.97
46682;BME280;34101;53.430;-2.224;2023-04-26T11:09:48;101298.08;;;14.79;31.60
46682;BME280;34101;53.430;-2.224;2023-04-26T11:12:15;101293.56;;;14.99;31.08
46682;BME280;34101;53.430;-2.224;2023-04-26T11:14:43;101292.89;;;15.07;30.13
46682;BME280;34101;53.430;-2.224;2023-04-26T11:17:11;101290.42;;;15.04;29.60
46682;BME280;34101;53.430;-2.224;2023-04-26T11:19:40;101287.89;;;14.99;30.26
46682;BME280;34101;53.430;-2.224;2023-04-26T11:22:08;101292.04;;;15.31;29.52
46682;BME280;34101;53.430;-2.224;2023-04-26T11:24:42;101290.69;;;15.44;29.21
46682;BME280;34101;53.430;-2.224;2023-04-26T11:27:10;101290.65;;;15.47;29.51
46682;BME280;34101;53.430;-2.224;2023-04-26T11:29:38;101289.67;;;15.72;29.51
46682;BME280;34101;53.430;-2.224;2023-04-26T11:32:05;101292.36;;;16.13;27.91
46682;BME280;34101;53.430;-2.224;2023-04-26T11:34:33;101288.93;;;16.07;28.85
46682;BME280;34101;53.430;-2.224;2023-04-26T11:37:01;101294.96;;;15.89;28.69
46682;BME280;34101;53.430;-2.224;2023-04-26T11:39:30;101289.22;;;15.97;27.75
46682;BME280;34101;53.430;-2.224;2023-04-26T11:42:04;101286.19;;;16.40;26.35
46682;BME280;34101;53.430;-2.224;2023-04-26T11:44:32;101283.18;;;17.51;26.71
46682;BME280;34101;53.430;-2.224;2023-04-26T11:47:00;101279.12;;;17.51;27.90
46682;BME280;34101;53.430;-2.224;2023-04-26T11:49:28;101283.76;;;18.06;26.57
46682;BME280;34101;53.430;-2.224;2023-04-26T11:51:56;101281.04;;;17.59;29.52
46682;BME280;34101;53.430;-2.224;2023-04-26T11:54:28;101279.86;;;18.90;25.71
46682;BME280;34101;53.430;-2.224;2023-04-26T11:56:55;101277.80;;;19.80;24.23
46682;BME280;34101;53.430;-2.224;2023-04-26T11:59:23;101277.97;;;20.10;23.91
46682;BME280;34101;53.430;-2.224;2023-04-26T12:01:51;101280.09;;;19.40;24.85
46682;BME280;34101;53.430;-2.224;2023-04-26T12:04:19;101282.83;;;18.53;25.20
46682;BME280;34101;53.430;-2.224;2023-04-26T12:06:57;101277.77;;;19.81;22.89
46682;BME280;34101;53.430;-2.224;2023-04-26T12:09:27;101277.02;;;19.51;24.04
46682;BME280;34101;53.430;-2.224;2023-04-26T12:11:57;101276.78;;;19.92;24.05
46682;BME280;34101;53.430;-2.224;2023-04-26T12:14:30;101277.47;;;20.58;23.42
46682;BME280;34101;53.430;-2.224;2023-04-26T12:16:58;101271.52;;;20.82;23.14
46682;BME280;34101;53.430;-2.224;2023-04-26T12:19:27;101277.23;;;19.14;24.88
46682;BME280;34101;53.430;-2.224;2023-04-26T12:21:54;101273.56;;;18.90;24.46
46682;BME280;34101;53.430;-2.224;2023-04-26T12:24:23;101273.13;;;18.65;25.07
46682;BME280;34101;53.430;-2.224;2023-04-26T12:26:50;101269.79;;;18.43;25.89
46682;BME280;34101;53.430;-2.224;2023-04-26T12:29:18;101272.39;;;18.02;26.34
46682;BME280;34101;53.430;-2.224;2023-04-26T12:31:45;101271.93;;;17.63;27.71
46682;BME280;34101;53.430;-2.224;2023-04-26T12:34:17;101272.09;;;17.15;28.46
46682;BME280;34101;53.430;-2.224;2023-04-26T12:36:45;101274.78;;;16.49;30.14
46682;BME280;34101;53.430;-2.224;2023-04-26T12:39:13;101274.84;;;16.14;30.36
46682;BME280;34101;53.430;-2.224;2023-04-26T12:41:40;101281.46;;;15.37;31.62
46682;BME280;34101;53.430;-2.224;2023-04-26T12:44:09;101281.00;;;15.98;31.00
46682;BME280;34101;53.430;-2.224;2023-04-26T12:46:36;101282.44;;;16.07;30.53
46682;BME280;34101;53.430;-2.224;2023-04-26T12:49:04;101283.30;;;15.98;32.28
46682;BME280;34101;53.430;-2.224;2023-04-26T12:51:31;101280.21;;;15.53;32.06
46682;BME280;34101;53.430;-2.224;2023-04-26T12:53:58;101285.86;;;15.44;31.42